Terminal Aerodrome Forecast
Issued by NWS

Home | Current Version | Previous Version | Text Only | Print | Product List | Glossary On
Versions: 1 2 3 4 5 6 7 8 9 10 11 12 13 14 15 16 17 18 19 20 21 22 23
000
FTUS46 KLOX 251819 AAA
TAFSBP
TAF AMD
KSBP 251819Z 2518/2618 30005KT P6SM SCT015
     FM252100 31012KT P6SM SKC
     FM260500 31006KT P6SM BKN008
     FM260800 VRB03KT P6SM OVC006
     FM261000 VRB03KT 5SM BR OVC005
     FM261700 VRB05KT P6SM BKN010=

USA.gov is the U.S. government's official web portal to all federal, state and local government web resources and services.